Terminal Aerodrome Forecast
Issued by NWS

Home | Current Version | Previous Version | Text Only | Print | Product List | Glossary Off
Versions: 1 2 3 4 5 6 7 8 9 10 11 12 13 14 15 16 17

000
FTUS43 KICT 210500
TAFHUT
TAF
KHUT 210520Z 2106/2206 17010KT P6SM SCT250
      TEMPO 2111/2114 4SM BR
     FM211500 20017G25KT P6SM SKC
     FM220300 19014KT P6SM SKC=

USA.gov is the U.S. government's official web portal to all federal, state and local government web resources and services.